createdAt,value
2022-10-31T00:01:20.273Z,6.85
2022-10-31T00:04:21.699Z,6.80
2022-10-31T00:07:23.278Z,7.15
2022-10-31T00:10:24.826Z,7.05
2022-10-31T00:13:26.384Z,6.80
2022-10-31T00:16:28.776Z,6.60
2022-10-31T00:19:30.236Z,6.68
2022-10-31T00:22:31.602Z,7.10
2022-10-31T00:25:38.713Z,6.00
2022-10-31T00:28:40.120Z,6.40
2022-10-31T00:31:41.574Z,6.85
2022-10-31T00:34:43.038Z,6.30
2022-10-31T00:37:44.883Z,6.28
2022-10-31T00:40:46.625Z,5.97
2022-10-31T00:43:48.127Z,5.93
2022-10-31T00:46:49.642Z,5.47
2022-10-31T00:49:56.294Z,6.03
2022-10-31T00:52:58.887Z,5.85
2022-10-31T00:56:00.666Z,5.93
2022-10-31T00:59:02.124Z,5.40
2022-10-31T01:02:03.706Z,5.57
2022-10-31T01:08:07.142Z,5.22
2022-10-31T01:11:15.093Z,5.10
2022-10-31T01:14:16.514Z,5.63
2022-10-31T01:17:18.044Z,4.85
2022-10-31T01:20:21.874Z,4.72
2022-10-31T01:23:23.292Z,4.68
2022-10-31T01:26:27.239Z,4.90
2022-10-31T01:29:28.900Z,4.68
2022-10-31T01:32:30.357Z,4.50
2022-10-31T01:35:33.499Z,4.60
2022-10-31T01:38:34.970Z,5.18
2022-10-31T01:41:39.856Z,4.77
2022-10-31T01:44:43.323Z,4.95
2022-10-31T01:47:48.097Z,5.72
2022-10-31T01:50:54.004Z,4.80
2022-10-31T01:54:00.718Z,5.03
2022-10-31T01:57:03.667Z,4.60
2022-10-31T02:00:09.661Z,4.72
2022-10-31T02:03:19.801Z,4.50
2022-10-31T02:06:38.459Z,4.95
2022-10-31T02:09:41.545Z,4.65
2022-10-31T02:12:43.914Z,4.45
2022-10-31T02:15:48.108Z,4.97
2022-10-31T02:18:49.864Z,4.00
2022-10-31T02:22:03.076Z,4.68
2022-10-31T02:25:12.264Z,4.30
2022-10-31T02:31:42.951Z,4.40
2022-10-31T02:34:59.245Z,4.78
2022-10-31T02:38:10.329Z,4.40
2022-10-31T02:41:22.707Z,4.72
2022-10-31T02:44:40.851Z,4.80
2022-10-31T02:47:43.598Z,4.43
2022-10-31T02:50:56.004Z,4.47
2022-10-31T02:53:57.525Z,4.50
2022-10-31T02:57:04.918Z,4.85
2022-10-31T03:00:09.184Z,4.43
2022-10-31T03:03:20.484Z,4.63
2022-10-31T03:06:28.887Z,5.07
2022-10-31T03:09:46.562Z,5.30
2022-10-31T03:12:59.298Z,5.50
2022-10-31T03:16:14.557Z,5.30
2022-10-31T03:19:31.075Z,5.07
2022-10-31T03:22:34.076Z,5.80
2022-10-31T03:25:37.405Z,5.72
2022-10-31T03:28:55.437Z,5.93
2022-10-31T03:32:02.686Z,5.50
2022-10-31T03:35:07.273Z,5.30
2022-10-31T03:38:10.446Z,5.55
2022-10-31T03:41:17.247Z,5.28
2022-10-31T03:44:23.010Z,5.88
2022-10-31T03:47:33.825Z,5.20
2022-10-31T03:50:46.749Z,5.60
2022-10-31T03:53:53.133Z,6.22
2022-10-31T03:57:11.756Z,4.55
2022-10-31T04:00:15.514Z,5.30
2022-10-31T04:03:35.374Z,4.65
2022-10-31T04:06:40.750Z,5.10
2022-10-31T04:09:45.667Z,4.75
2022-10-31T04:12:55.056Z,4.57
2022-10-31T04:16:00.025Z,5.75
2022-10-31T04:19:01.543Z,4.90
2022-10-31T04:22:03.232Z,4.70
2022-10-31T04:25:05.490Z,4.53
2022-10-31T04:28:06.949Z,4.85
2022-10-31T04:31:12.110Z,5.00
2022-10-31T04:34:14.177Z,4.90
2022-10-31T04:37:16.191Z,5.88
2022-10-31T04:40:17.619Z,5.33
2022-10-31T04:43:51.363Z,5.07
2022-10-31T04:46:52.792Z,4.82
2022-10-31T04:49:54.204Z,5.03
2022-10-31T04:52:56.514Z,5.00
2022-10-31T04:56:02.097Z,5.15
2022-10-31T04:59:12.010Z,4.93
2022-10-31T05:02:22.008Z,5.45
2022-10-31T05:05:32.065Z,5.82
2022-10-31T05:08:35.941Z,5.70
2022-10-31T05:11:40.535Z,5.63
2022-10-31T05:14:56.483Z,5.95
2022-10-31T05:18:36.027Z,5.57
2022-10-31T05:22:06.274Z,5.68
2022-10-31T05:25:08.841Z,6.68
2022-10-31T05:28:10.904Z,6.50
2022-10-31T05:31:12.582Z,6.40
2022-10-31T05:34:14.017Z,6.50
2022-10-31T05:37:41.067Z,6.40
2022-10-31T05:40:42.514Z,6.63
2022-10-31T05:43:44.617Z,6.13
2022-10-31T05:46:47.473Z,6.03
2022-10-31T05:50:10.531Z,6.45
2022-10-31T05:53:14.800Z,6.05
2022-10-31T05:56:16.274Z,6.00
2022-10-31T05:59:18.208Z,6.32
2022-10-31T06:02:20.574Z,5.97
2022-10-31T06:05:42.011Z,6.55
2022-10-31T06:08:44.127Z,6.30
2022-10-31T06:11:49.398Z,5.97
2022-10-31T06:14:59.753Z,5.80
2022-10-31T06:18:04.206Z,6.45
2022-10-31T06:21:11.528Z,6.40
2022-10-31T06:24:15.980Z,5.95
2022-10-31T06:27:29.303Z,6.25
2022-10-31T06:30:32.316Z,6.38
2022-10-31T06:33:34.951Z,6.10
2022-10-31T06:36:36.944Z,5.80
2022-10-31T06:39:39.166Z,5.88
2022-10-31T06:42:41.028Z,7.25
2022-10-31T06:45:44.074Z,6.53
2022-10-31T06:48:57.080Z,7.30
2022-10-31T06:52:10.069Z,6.68
2022-10-31T06:55:11.591Z,6.32
2022-10-31T06:58:20.491Z,6.95
2022-10-31T07:01:23.849Z,7.22
2022-10-31T07:04:25.458Z,6.80
2022-10-31T07:07:26.938Z,6.97
2022-10-31T07:10:32.175Z,6.97
2022-10-31T07:13:37.845Z,7.47
2022-10-31T07:16:42.089Z,7.45
2022-10-31T07:19:44.122Z,7.45
2022-10-31T07:22:50.571Z,7.05
2022-10-31T07:25:57.410Z,7.45
2022-10-31T07:29:01.111Z,6.85
2022-10-31T07:32:03.690Z,7.78
2022-10-31T07:35:07.900Z,7.32
2022-10-31T07:38:20.538Z,7.43
2022-10-31T07:41:22.461Z,7.97
2022-10-31T07:44:24.094Z,7.70
2022-10-31T07:47:28.236Z,7.18
2022-10-31T07:50:41.681Z,7.40
2022-10-31T07:54:02.016Z,7.55
2022-10-31T07:57:05.997Z,7.68
2022-10-31T08:00:10.247Z,7.05
2022-10-31T08:03:18.523Z,7.13
2022-10-31T08:06:38.460Z,5.43
2022-10-31T08:09:51.609Z,5.25
2022-10-31T08:13:01.958Z,5.07
2022-10-31T08:16:05.519Z,5.15
2022-10-31T08:19:10.791Z,5.00
2022-10-31T08:22:14.744Z,4.68
2022-10-31T08:25:16.206Z,4.95
2022-10-31T08:28:18.077Z,5.25
2022-10-31T08:31:22.392Z,5.40
2022-10-31T08:34:23.833Z,5.30
2022-10-31T08:37:43.932Z,5.35
2022-10-31T08:40:49.606Z,5.18
2022-10-31T08:43:51.104Z,5.13
2022-10-31T08:46:52.592Z,5.20
2022-10-31T08:49:57.143Z,5.68
2022-10-31T08:53:06.237Z,5.70
2022-10-31T08:56:08.969Z,4.95
2022-10-31T09:05:46.663Z,5.97
2022-10-31T09:08:48.248Z,5.85
2022-10-31T09:11:49.770Z,6.05
2022-10-31T09:15:09.754Z,6.13
2022-10-31T09:18:21.886Z,5.90
2022-10-31T09:21:33.710Z,5.78
2022-10-31T09:24:35.121Z,6.22
2022-10-31T09:27:37.291Z,6.32
2022-10-31T09:30:39.412Z,6.38
2022-10-31T09:33:40.875Z,6.38
2022-10-31T09:37:04.996Z,6.15
2022-10-31T09:40:09.867Z,5.95
2022-10-31T09:43:39.161Z,8.43
2022-10-31T09:47:09.479Z,6.68
2022-10-31T09:50:12.735Z,6.65
2022-10-31T09:53:26.192Z,7.22
2022-10-31T09:56:29.653Z,6.60
2022-10-31T09:59:36.925Z,7.07
2022-10-31T10:02:53.836Z,7.78
2022-10-31T10:06:20.397Z,7.68
2022-10-31T10:09:51.122Z,8.20
2022-10-31T10:13:21.201Z,7.20
2022-10-31T10:16:25.573Z,7.50
2022-10-31T10:19:35.911Z,7.85
2022-10-31T10:23:03.521Z,8.43
2022-10-31T10:26:37.187Z,7.93
2022-10-31T10:30:03.772Z,7.68
2022-10-31T10:33:40.386Z,7.32
2022-10-31T10:36:46.039Z,7.53
2022-10-31T10:39:53.304Z,7.88
2022-10-31T10:43:19.754Z,7.65
2022-10-31T10:46:46.011Z,6.55
2022-10-31T10:49:53.569Z,6.97
2022-10-31T10:53:01.944Z,7.22
2022-10-31T10:56:34.335Z,6.78
2022-10-31T10:59:36.080Z,6.25
2022-10-31T11:02:37.566Z,6.95
2022-10-31T11:05:52.121Z,5.72
2022-10-31T11:08:54.361Z,5.82
2022-10-31T11:11:56.897Z,5.80
2022-10-31T11:15:01.287Z,5.80
2022-10-31T11:18:02.734Z,5.93
2022-10-31T11:21:05.466Z,5.60
2022-10-31T11:24:09.903Z,5.68
2022-10-31T11:27:17.760Z,5.93
2022-10-31T11:30:19.231Z,5.97
2022-10-31T11:33:32.379Z,6.10
2022-10-31T11:36:40.013Z,6.30
2022-10-31T11:39:44.283Z,6.85
2022-10-31T11:42:46.970Z,6.85
2022-10-31T11:45:48.570Z,6.50
2022-10-31T11:48:53.324Z,6.35
2022-10-31T11:51:57.446Z,6.07
2022-10-31T11:55:23.499Z,6.30
2022-10-31T11:58:26.898Z,5.65
2022-10-31T12:01:31.019Z,6.25
2022-10-31T12:04:41.262Z,6.28
2022-10-31T12:07:43.352Z,6.63
2022-10-31T12:14:34.286Z,7.30
2022-10-31T12:17:49.593Z,8.93
2022-10-31T12:21:09.756Z,8.18
2022-10-31T12:24:28.722Z,8.27
2022-10-31T12:27:48.346Z,8.10
2022-10-31T12:31:14.329Z,8.60
2022-10-31T12:34:49.230Z,8.90
2022-10-31T12:38:15.402Z,8.38
2022-10-31T12:41:22.278Z,8.98
2022-10-31T12:44:29.630Z,8.23
2022-10-31T12:47:57.698Z,8.07
2022-10-31T12:51:20.457Z,8.20
2022-10-31T12:54:36.288Z,7.55
2022-10-31T12:57:45.916Z,8.35
2022-10-31T13:00:51.924Z,8.10
2022-10-31T13:04:04.463Z,8.25
2022-10-31T13:07:16.277Z,7.95
2022-10-31T13:10:26.731Z,7.70
2022-10-31T13:13:53.216Z,8.40
2022-10-31T13:16:57.590Z,8.30
2022-10-31T13:20:14.404Z,8.60
2022-10-31T13:26:57.332Z,8.32
2022-10-31T13:30:06.771Z,8.15
2022-10-31T13:33:33.890Z,8.95
2022-10-31T13:36:43.896Z,7.70
2022-10-31T13:40:00.529Z,7.60
2022-10-31T13:43:27.251Z,7.97
2022-10-31T13:46:34.764Z,8.07
2022-10-31T13:49:36.189Z,7.25
2022-10-31T13:52:38.185Z,7.82
2022-10-31T13:55:45.107Z,7.55
2022-10-31T13:59:02.929Z,7.20
2022-10-31T14:02:16.784Z,6.75
2022-10-31T14:05:34.360Z,7.43
2022-10-31T14:08:43.500Z,7.22
2022-10-31T14:11:49.212Z,10.55
2022-10-31T14:14:53.942Z,12.15
2022-10-31T14:18:00.556Z,13.40
2022-10-31T14:21:02.516Z,12.57
2022-10-31T14:24:34.028Z,12.10
2022-10-31T14:27:46.436Z,12.00
2022-10-31T14:30:59.349Z,11.73
2022-10-31T14:34:02.458Z,11.55
2022-10-31T14:37:36.982Z,11.73
2022-10-31T14:44:15.264Z,11.70
2022-10-31T14:47:56.755Z,11.93
2022-10-31T14:51:00.370Z,12.55
2022-10-31T14:54:02.308Z,11.48
2022-10-31T14:57:07.482Z,11.27
2022-10-31T15:00:19.878Z,11.00
2022-10-31T15:04:21.737Z,11.65
2022-10-31T15:07:24.899Z,12.45
2022-10-31T15:10:33.075Z,12.60
2022-10-31T15:13:34.567Z,12.05
2022-10-31T15:16:44.574Z,12.38
2022-10-31T15:19:46.485Z,11.02
2022-10-31T15:22:49.247Z,10.23
2022-10-31T15:25:50.846Z,10.43
2022-10-31T15:29:15.395Z,10.25
2022-10-31T15:32:21.757Z,10.18
2022-10-31T15:35:26.756Z,10.70
2022-10-31T15:38:30.107Z,9.95
2022-10-31T15:41:37.174Z,9.60
2022-10-31T15:44:42.917Z,9.50
2022-10-31T15:47:55.668Z,9.82
2022-10-31T15:50:58.499Z,11.32
2022-10-31T15:54:00.956Z,10.82
2022-10-31T15:57:02.399Z,10.55
2022-10-31T16:00:04.332Z,10.18
2022-10-31T16:03:08.081Z,9.63
2022-10-31T16:06:21.343Z,9.68
2022-10-31T16:09:24.952Z,9.20
2022-10-31T16:12:35.833Z,8.80
2022-10-31T16:15:37.436Z,10.48
2022-10-31T16:18:41.961Z,10.27
2022-10-31T16:21:43.547Z,9.88
2022-10-31T16:24:56.756Z,10.05
2022-10-31T16:28:04.515Z,10.13
2022-10-31T16:31:14.920Z,8.95
2022-10-31T16:34:26.375Z,9.82
2022-10-31T16:37:28.897Z,9.65
2022-10-31T16:40:31.703Z,11.13
2022-10-31T16:43:34.762Z,12.52
2022-10-31T16:46:36.527Z,9.95
2022-10-31T16:49:38.055Z,11.35
2022-10-31T16:52:53.843Z,14.27
2022-10-31T16:56:04.543Z,12.32
2022-10-31T16:59:15.652Z,14.93
2022-10-31T17:02:18.300Z,18.48
2022-10-31T17:08:24.785Z,21.50
2022-10-31T17:11:27.127Z,21.23
2022-10-31T17:14:29.123Z,18.75
2022-10-31T17:17:30.559Z,19.40
2022-10-31T17:20:32.514Z,17.92
2022-10-31T17:23:33.964Z,16.42
2022-10-31T17:26:35.354Z,16.35
2022-10-31T17:29:36.849Z,17.67
2022-10-31T17:32:38.694Z,18.65
2022-10-31T17:35:40.115Z,19.42
2022-10-31T17:38:41.550Z,18.80
2022-10-31T17:41:43.136Z,17.42
2022-10-31T17:44:44.553Z,17.48
2022-10-31T17:47:51.974Z,15.52
2022-10-31T17:50:53.410Z,16.83
2022-10-31T17:53:54.788Z,14.60
2022-10-31T17:56:56.402Z,16.15
2022-10-31T17:59:57.962Z,16.80
2022-10-31T18:02:59.950Z,17.25
2022-10-31T18:06:01.787Z,16.98
2022-10-31T18:09:04.640Z,18.55
2022-10-31T18:12:06.214Z,15.68
2022-10-31T18:15:07.956Z,15.27
2022-10-31T18:18:09.467Z,14.90
2022-10-31T18:21:11.015Z,15.13
2022-10-31T18:24:12.864Z,15.30
2022-10-31T18:27:14.363Z,14.73
2022-10-31T18:30:15.861Z,14.60
2022-10-31T18:33:17.270Z,16.90
2022-10-31T18:36:19.053Z,47.08
2022-10-31T18:39:20.483Z,33.17
2022-10-31T18:42:21.898Z,24.05
2022-10-31T18:45:33.984Z,19.77
2022-10-31T18:48:45.389Z,17.97
2022-10-31T18:51:46.775Z,17.45
2022-10-31T18:54:48.587Z,16.40
2022-10-31T18:57:50.006Z,17.75
2022-10-31T19:00:51.700Z,22.23
2022-10-31T19:03:55.592Z,15.48
2022-10-31T19:06:57.034Z,16.13
2022-10-31T19:09:58.992Z,24.38
2022-10-31T19:13:00.699Z,24.48
2022-10-31T19:16:13.993Z,16.25
2022-10-31T19:19:15.573Z,16.20
2022-10-31T19:22:17.039Z,14.85
2022-10-31T19:25:18.543Z,14.77
2022-10-31T19:28:19.972Z,13.80
2022-10-31T19:31:21.529Z,14.35
2022-10-31T19:34:22.924Z,15.93
2022-10-31T19:37:24.465Z,15.97
2022-10-31T19:40:25.846Z,15.32
2022-10-31T19:43:28.089Z,14.67
2022-10-31T19:49:51.074Z,14.18
2022-10-31T19:52:52.484Z,15.07
2022-10-31T19:55:53.908Z,14.52
2022-10-31T19:58:57.128Z,14.83
2022-10-31T20:01:58.758Z,14.95
2022-10-31T20:05:01.770Z,15.20
2022-10-31T20:08:03.487Z,15.65
2022-10-31T20:11:05.085Z,15.13
2022-10-31T20:14:08.189Z,14.90
2022-10-31T20:17:09.855Z,15.13
2022-10-31T20:20:11.478Z,16.80
2022-10-31T20:23:13.010Z,18.92
2022-10-31T20:26:17.715Z,14.05
2022-10-31T20:29:19.559Z,13.88
2022-10-31T20:32:21.347Z,14.77
2022-10-31T20:35:22.907Z,14.98
2022-10-31T20:38:24.350Z,13.85
2022-10-31T20:41:25.889Z,14.57
2022-10-31T20:44:27.664Z,14.60
2022-10-31T20:47:29.156Z,15.25
2022-10-31T20:50:30.574Z,14.55
2022-10-31T20:53:32.643Z,14.40
2022-10-31T20:56:34.092Z,14.60
2022-10-31T20:59:35.792Z,13.63
2022-10-31T21:02:43.054Z,13.98
2022-10-31T21:05:56.515Z,14.95
2022-10-31T21:08:58.330Z,16.33
2022-10-31T21:11:59.712Z,16.00
2022-10-31T21:15:01.117Z,14.97
2022-10-31T21:18:02.591Z,15.93
2022-10-31T21:21:19.930Z,14.40
2022-10-31T21:24:21.824Z,13.70
2022-10-31T21:27:23.863Z,14.43
2022-10-31T21:30:25.275Z,14.18
2022-10-31T21:33:26.822Z,12.60
2022-10-31T21:36:28.390Z,10.73
2022-10-31T21:39:29.776Z,9.35
2022-10-31T21:42:33.039Z,9.37
2022-10-31T21:45:34.595Z,8.80
2022-10-31T21:48:42.021Z,8.05
2022-10-31T21:51:44.130Z,8.27
2022-10-31T21:54:45.649Z,7.22
2022-10-31T21:57:47.195Z,8.90
2022-10-31T22:00:48.743Z,9.20
2022-10-31T22:03:50.224Z,11.75
2022-10-31T22:06:51.734Z,9.75
2022-10-31T22:09:53.257Z,9.07
2022-10-31T22:12:54.645Z,7.97
2022-10-31T22:16:00.391Z,8.85
2022-10-31T22:19:05.681Z,7.10
2022-10-31T22:22:07.412Z,8.07
2022-10-31T22:25:09.287Z,8.20
2022-10-31T22:28:10.800Z,8.55
2022-10-31T22:31:16.072Z,7.97
2022-10-31T22:34:18.799Z,9.25
2022-10-31T22:37:20.278Z,8.88
2022-10-31T22:40:21.708Z,7.88
2022-10-31T22:43:23.150Z,8.07
2022-10-31T22:46:27.202Z,8.60
2022-10-31T22:49:29.884Z,7.78
2022-10-31T22:52:31.597Z,7.50
2022-10-31T22:55:34.862Z,6.50
2022-10-31T22:58:36.623Z,8.40
2022-10-31T23:01:38.315Z,7.50
2022-10-31T23:04:40.070Z,6.72
2022-10-31T23:07:41.514Z,7.20
2022-10-31T23:10:44.188Z,6.68
2022-10-31T23:14:06.175Z,6.00
2022-10-31T23:17:07.668Z,6.95
2022-10-31T23:20:09.422Z,6.70
2022-10-31T23:23:10.830Z,6.10
2022-10-31T23:26:31.125Z,6.23
2022-10-31T23:29:34.543Z,6.47
2022-10-31T23:32:37.773Z,6.82
2022-10-31T23:35:39.278Z,6.80
2022-10-31T23:38:40.722Z,7.30
2022-10-31T23:41:42.173Z,7.00
2022-10-31T23:44:43.819Z,7.38
2022-10-31T23:47:45.220Z,7.07
2022-10-31T23:50:47.714Z,6.95
2022-10-31T23:53:49.132Z,7.35
2022-10-31T23:56:50.780Z,8.70
2022-10-31T23:59:52.162Z,8.23
